sensor_id;sensor_type;location;lat;lon;timestamp;P1;durP1;ratioP1;P2;durP2;ratioP2
7477;SDS011;3780;42.424;25.636;2023-07-30T00:01:13;3.03;;;1.95;;
7477;SDS011;3780;42.424;25.636;2023-07-30T00:03:38;3.17;;;1.60;;
7477;SDS011;3780;42.424;25.636;2023-07-30T00:06:04;2.90;;;1.77;;
7477;SDS011;3780;42.424;25.636;2023-07-30T00:08:29;2.78;;;1.90;;
7477;SDS011;3780;42.424;25.636;2023-07-30T00:10:56;3.53;;;1.98;;
7477;SDS011;3780;42.424;25.636;2023-07-30T00:13:21;2.38;;;1.73;;
7477;SDS011;3780;42.424;25.636;2023-07-30T00:15:47;3.53;;;1.90;;
7477;SDS011;3780;42.424;25.636;2023-07-30T00:18:12;6.15;;;2.05;;
7477;SDS011;3780;42.424;25.636;2023-07-30T00:20:38;5.25;;;1.90;;
7477;SDS011;3780;42.424;25.636;2023-07-30T00:23:03;3.42;;;1.80;;
7477;SDS011;3780;42.424;25.636;2023-07-30T00:25:28;4.90;;;1.92;;
7477;SDS011;3780;42.424;25.636;2023-07-30T00:27:54;3.47;;;1.63;;
7477;SDS011;3780;42.424;25.636;2023-07-30T00:30:19;2.92;;;1.80;;
7477;SDS011;3780;42.424;25.636;2023-07-30T00:32:44;2.65;;;1.60;;
7477;SDS011;3780;42.424;25.636;2023-07-30T00:35:10;2.45;;;1.50;;
7477;SDS011;3780;42.424;25.636;2023-07-30T00:37:35;3.40;;;1.95;;
7477;SDS011;3780;42.424;25.636;2023-07-30T00:40:01;2.67;;;1.98;;
7477;SDS011;3780;42.424;25.636;2023-07-30T00:42:27;2.97;;;1.90;;
7477;SDS011;3780;42.424;25.636;2023-07-30T00:44:52;2.63;;;1.42;;
7477;SDS011;3780;42.424;25.636;2023-07-30T00:47:18;3.25;;;1.88;;
7477;SDS011;3780;42.424;25.636;2023-07-30T00:49:43;1.88;;;1.58;;
7477;SDS011;3780;42.424;25.636;2023-07-30T00:52:08;4.00;;;1.95;;
7477;SDS011;3780;42.424;25.636;2023-07-30T00:54:34;3.15;;;2.10;;
7477;SDS011;3780;42.424;25.636;2023-07-30T00:56:59;4.60;;;1.83;;
7477;SDS011;3780;42.424;25.636;2023-07-30T00:59:25;3.00;;;1.38;;
7477;SDS011;3780;42.424;25.636;2023-07-30T01:01:51;4.55;;;1.83;;
7477;SDS011;3780;42.424;25.636;2023-07-30T01:04:16;2.42;;;1.83;;
7477;SDS011;3780;42.424;25.636;2023-07-30T01:06:42;2.65;;;1.90;;
7477;SDS011;3780;42.424;25.636;2023-07-30T01:09:07;4.05;;;1.80;;
7477;SDS011;3780;42.424;25.636;2023-07-30T01:11:33;7.82;;;2.50;;
7477;SDS011;3780;42.424;25.636;2023-07-30T01:13:58;6.35;;;1.90;;
7477;SDS011;3780;42.424;25.636;2023-07-30T01:16:24;2.40;;;1.65;;
7477;SDS011;3780;42.424;25.636;2023-07-30T01:18:49;2.40;;;1.90;;
7477;SDS011;3780;42.424;25.636;2023-07-30T01:21:15;4.00;;;1.63;;
7477;SDS011;3780;42.424;25.636;2023-07-30T01:23:40;3.20;;;2.00;;
7477;SDS011;3780;42.424;25.636;2023-07-30T01:26:10;2.83;;;1.80;;
7477;SDS011;3780;42.424;25.636;2023-07-30T01:28:46;3.90;;;2.08;;
7477;SDS011;3780;42.424;25.636;2023-07-30T01:31:14;4.55;;;1.70;;
7477;SDS011;3780;42.424;25.636;2023-07-30T01:33:39;4.07;;;2.00;;
7477;SDS011;3780;42.424;25.636;2023-07-30T01:36:05;4.60;;;1.98;;
7477;SDS011;3780;42.424;25.636;2023-07-30T01:38:32;3.63;;;1.98;;
7477;SDS011;3780;42.424;25.636;2023-07-30T01:40:57;2.72;;;1.55;;
7477;SDS011;3780;42.424;25.636;2023-07-30T01:43:23;3.20;;;2.05;;
7477;SDS011;3780;42.424;25.636;2023-07-30T01:45:48;3.47;;;1.90;;
7477;SDS011;3780;42.424;25.636;2023-07-30T01:48:13;5.00;;;2.13;;
7477;SDS011;3780;42.424;25.636;2023-07-30T01:50:39;4.30;;;2.20;;
7477;SDS011;3780;42.424;25.636;2023-07-30T01:53:04;4.15;;;2.20;;
7477;SDS011;3780;42.424;25.636;2023-07-30T01:55:29;2.60;;;1.73;;
7477;SDS011;3780;42.424;25.636;2023-07-30T01:57:55;5.35;;;1.80;;
7477;SDS011;3780;42.424;25.636;2023-07-30T02:00:20;3.38;;;2.10;;
7477;SDS011;3780;42.424;25.636;2023-07-30T02:02:45;7.30;;;2.30;;
7477;SDS011;3780;42.424;25.636;2023-07-30T02:05:10;3.92;;;2.13;;
7477;SDS011;3780;42.424;25.636;2023-07-30T02:07:36;7.43;;;2.20;;
7477;SDS011;3780;42.424;25.636;2023-07-30T02:10:01;5.82;;;2.20;;
7477;SDS011;3780;42.424;25.636;2023-07-30T02:12:26;4.15;;;1.80;;
7477;SDS011;3780;42.424;25.636;2023-07-30T02:14:52;2.60;;;2.13;;
7477;SDS011;3780;42.424;25.636;2023-07-30T02:17:17;5.93;;;2.17;;
7477;SDS011;3780;42.424;25.636;2023-07-30T02:19:42;5.25;;;2.50;;
7477;SDS011;3780;42.424;25.636;2023-07-30T02:22:08;3.80;;;2.00;;
7477;SDS011;3780;42.424;25.636;2023-07-30T02:24:33;2.15;;;1.70;;
7477;SDS011;3780;42.424;25.636;2023-07-30T02:26:58;3.50;;;2.05;;
7477;SDS011;3780;42.424;25.636;2023-07-30T02:29:23;5.18;;;1.92;;
7477;SDS011;3780;42.424;25.636;2023-07-30T02:31:49;3.42;;;1.85;;
7477;SDS011;3780;42.424;25.636;2023-07-30T02:34:14;2.67;;;2.10;;
7477;SDS011;3780;42.424;25.636;2023-07-30T02:36:39;5.10;;;2.45;;
7477;SDS011;3780;42.424;25.636;2023-07-30T02:39:05;5.53;;;2.58;;
7477;SDS011;3780;42.424;25.636;2023-07-30T02:41:30;3.92;;;2.00;;
7477;SDS011;3780;42.424;25.636;2023-07-30T02:43:55;5.25;;;2.13;;
7477;SDS011;3780;42.424;25.636;2023-07-30T02:46:20;3.75;;;2.00;;
7477;SDS011;3780;42.424;25.636;2023-07-30T02:48:46;6.75;;;2.40;;
7477;SDS011;3780;42.424;25.636;2023-07-30T02:51:11;8.80;;;4.68;;
7477;SDS011;3780;42.424;25.636;2023-07-30T02:53:36;3.80;;;2.30;;
7477;SDS011;3780;42.424;25.636;2023-07-30T02:56:01;6.28;;;3.38;;
7477;SDS011;3780;42.424;25.636;2023-07-30T02:58:27;3.20;;;2.15;;
7477;SDS011;3780;42.424;25.636;2023-07-30T03:00:52;5.15;;;2.78;;
7477;SDS011;3780;42.424;25.636;2023-07-30T03:03:17;4.03;;;2.40;;
7477;SDS011;3780;42.424;25.636;2023-07-30T03:05:43;3.88;;;2.40;;
7477;SDS011;3780;42.424;25.636;2023-07-30T03:08:08;12.55;;;6.78;;
7477;SDS011;3780;42.424;25.636;2023-07-30T03:10:33;3.17;;;2.53;;
7477;SDS011;3780;42.424;25.636;2023-07-30T03:12:59;6.88;;;3.05;;
7477;SDS011;3780;42.424;25.636;2023-07-30T03:15:24;4.03;;;2.42;;
7477;SDS011;3780;42.424;25.636;2023-07-30T03:17:49;4.90;;;2.53;;
7477;SDS011;3780;42.424;25.636;2023-07-30T03:20:14;7.38;;;3.30;;
7477;SDS011;3780;42.424;25.636;2023-07-30T03:22:40;17.73;;;7.95;;
7477;SDS011;3780;42.424;25.636;2023-07-30T03:25:05;4.03;;;2.58;;
7477;SDS011;3780;42.424;25.636;2023-07-30T03:27:30;7.63;;;2.85;;
7477;SDS011;3780;42.424;25.636;2023-07-30T03:29:56;4.88;;;2.60;;
7477;SDS011;3780;42.424;25.636;2023-07-30T03:32:21;24.20;;;5.85;;
7477;SDS011;3780;42.424;25.636;2023-07-30T03:34:46;8.52;;;2.60;;
7477;SDS011;3780;42.424;25.636;2023-07-30T03:37:12;5.28;;;2.88;;
7477;SDS011;3780;42.424;25.636;2023-07-30T03:39:37;3.70;;;2.28;;
7477;SDS011;3780;42.424;25.636;2023-07-30T03:42:02;5.78;;;2.67;;
7477;SDS011;3780;42.424;25.636;2023-07-30T03:44:28;4.78;;;2.75;;
7477;SDS011;3780;42.424;25.636;2023-07-30T03:46:53;3.33;;;2.05;;
7477;SDS011;3780;42.424;25.636;2023-07-30T03:49:18;3.35;;;1.75;;
7477;SDS011;3780;42.424;25.636;2023-07-30T03:51:43;6.35;;;2.85;;
7477;SDS011;3780;42.424;25.636;2023-07-30T03:54:09;4.93;;;2.33;;
7477;SDS011;3780;42.424;25.636;2023-07-30T03:56:34;5.85;;;2.55;;
7477;SDS011;3780;42.424;25.636;2023-07-30T03:58:59;3.42;;;2.47;;
7477;SDS011;3780;42.424;25.636;2023-07-30T04:01:25;3.40;;;2.13;;
7477;SDS011;3780;42.424;25.636;2023-07-30T04:03:50;19.98;;;4.03;;
7477;SDS011;3780;42.424;25.636;2023-07-30T04:06:15;4.70;;;2.60;;
7477;SDS011;3780;42.424;25.636;2023-07-30T04:08:40;23.05;;;13.85;;
7477;SDS011;3780;42.424;25.636;2023-07-30T04:11:06;15.02;;;6.90;;
7477;SDS011;3780;42.424;25.636;2023-07-30T04:13:31;9.68;;;7.35;;
7477;SDS011;3780;42.424;25.636;2023-07-30T04:15:56;5.20;;;3.90;;
7477;SDS011;3780;42.424;25.636;2023-07-30T04:18:22;5.80;;;3.50;;
7477;SDS011;3780;42.424;25.636;2023-07-30T04:20:47;6.50;;;2.88;;
7477;SDS011;3780;42.424;25.636;2023-07-30T04:23:13;5.82;;;3.10;;
7477;SDS011;3780;42.424;25.636;2023-07-30T04:25:38;3.28;;;2.83;;
7477;SDS011;3780;42.424;25.636;2023-07-30T04:28:03;3.70;;;2.30;;
7477;SDS011;3780;42.424;25.636;2023-07-30T04:30:28;4.93;;;2.53;;
7477;SDS011;3780;42.424;25.636;2023-07-30T04:32:54;12.75;;;3.65;;
7477;SDS011;3780;42.424;25.636;2023-07-30T04:35:19;8.98;;;3.28;;
7477;SDS011;3780;42.424;25.636;2023-07-30T04:37:44;5.78;;;2.75;;
7477;SDS011;3780;42.424;25.636;2023-07-30T04:40:10;8.23;;;4.65;;
7477;SDS011;3780;42.424;25.636;2023-07-30T04:42:35;9.50;;;3.33;;
7477;SDS011;3780;42.424;25.636;2023-07-30T04:45:00;38.20;;;25.85;;
7477;SDS011;3780;42.424;25.636;2023-07-30T04:47:26;8.68;;;6.80;;
7477;SDS011;3780;42.424;25.636;2023-07-30T04:49:51;26.95;;;15.05;;
7477;SDS011;3780;42.424;25.636;2023-07-30T04:52:16;20.08;;;11.32;;
7477;SDS011;3780;42.424;25.636;2023-07-30T04:54:42;17.27;;;13.65;;
7477;SDS011;3780;42.424;25.636;2023-07-30T04:57:07;25.38;;;14.55;;
7477;SDS011;3780;42.424;25.636;2023-07-30T04:59:32;8.93;;;3.90;;
7477;SDS011;3780;42.424;25.636;2023-07-30T05:01:59;15.63;;;4.13;;
7477;SDS011;3780;42.424;25.636;2023-07-30T05:04:24;4.93;;;3.08;;
7477;SDS011;3780;42.424;25.636;2023-07-30T05:06:49;6.50;;;2.85;;
7477;SDS011;3780;42.424;25.636;2023-07-30T05:09:15;8.23;;;2.50;;
7477;SDS011;3780;42.424;25.636;2023-07-30T05:11:40;6.85;;;3.17;;
7477;SDS011;3780;42.424;25.636;2023-07-30T05:14:05;6.85;;;3.45;;
7477;SDS011;3780;42.424;25.636;2023-07-30T05:16:30;11.70;;;8.20;;
7477;SDS011;3780;42.424;25.636;2023-07-30T05:18:56;13.10;;;8.98;;
7477;SDS011;3780;42.424;25.636;2023-07-30T05:21:21;14.15;;;8.65;;
7477;SDS011;3780;42.424;25.636;2023-07-30T05:23:46;20.15;;;10.65;;
7477;SDS011;3780;42.424;25.636;2023-07-30T05:26:11;19.40;;;10.88;;
7477;SDS011;3780;42.424;25.636;2023-07-30T05:28:37;12.13;;;10.00;;
7477;SDS011;3780;42.424;25.636;2023-07-30T05:31:02;7.72;;;5.72;;
7477;SDS011;3780;42.424;25.636;2023-07-30T05:33:27;9.43;;;5.40;;
7477;SDS011;3780;42.424;25.636;2023-07-30T05:35:53;9.27;;;5.53;;
7477;SDS011;3780;42.424;25.636;2023-07-30T05:38:18;12.55;;;10.30;;
7477;SDS011;3780;42.424;25.636;2023-07-30T05:40:43;15.27;;;7.93;;
7477;SDS011;3780;42.424;25.636;2023-07-30T05:43:08;8.48;;;5.70;;
7477;SDS011;3780;42.424;25.636;2023-07-30T05:45:34;14.55;;;11.88;;
7477;SDS011;3780;42.424;25.636;2023-07-30T05:48:00;14.18;;;9.23;;
7477;SDS011;3780;42.424;25.636;2023-07-30T05:50:25;9.98;;;4.00;;
7477;SDS011;3780;42.424;25.636;2023-07-30T05:52:50;5.72;;;3.72;;
7477;SDS011;3780;42.424;25.636;2023-07-30T05:55:16;24.35;;;15.30;;
7477;SDS011;3780;42.424;25.636;2023-07-30T05:57:41;17.70;;;11.20;;
7477;SDS011;3780;42.424;25.636;2023-07-30T06:00:06;20.15;;;13.38;;
7477;SDS011;3780;42.424;25.636;2023-07-30T06:02:32;29.80;;;16.52;;
7477;SDS011;3780;42.424;25.636;2023-07-30T06:04:57;15.05;;;7.97;;
7477;SDS011;3780;42.424;25.636;2023-07-30T06:07:22;8.10;;;3.65;;
7477;SDS011;3780;42.424;25.636;2023-07-30T06:09:48;8.88;;;4.07;;
7477;SDS011;3780;42.424;25.636;2023-07-30T06:12:13;10.20;;;3.85;;
7477;SDS011;3780;42.424;25.636;2023-07-30T06:14:38;6.88;;;3.72;;
7477;SDS011;3780;42.424;25.636;2023-07-30T06:17:04;11.15;;;6.18;;
7477;SDS011;3780;42.424;25.636;2023-07-30T06:19:29;13.45;;;4.55;;
7477;SDS011;3780;42.424;25.636;2023-07-30T06:21:54;10.68;;;5.30;;
7477;SDS011;3780;42.424;25.636;2023-07-30T06:24:20;9.48;;;4.85;;
7477;SDS011;3780;42.424;25.636;2023-07-30T06:26:45;10.43;;;5.82;;
7477;SDS011;3780;42.424;25.636;2023-07-30T06:29:10;7.88;;;5.80;;
7477;SDS011;3780;42.424;25.636;2023-07-30T06:31:36;7.28;;;4.13;;
7477;SDS011;3780;42.424;25.636;2023-07-30T06:34:01;9.57;;;5.10;;
7477;SDS011;3780;42.424;25.636;2023-07-30T06:36:26;14.15;;;5.47;;
7477;SDS011;3780;42.424;25.636;2023-07-30T06:38:52;11.30;;;4.50;;
7477;SDS011;3780;42.424;25.636;2023-07-30T06:41:17;14.52;;;7.68;;
7477;SDS011;3780;42.424;25.636;2023-07-30T06:43:42;11.50;;;5.95;;
7477;SDS011;3780;42.424;25.636;2023-07-30T06:46:07;5.53;;;3.67;;
7477;SDS011;3780;42.424;25.636;2023-07-30T06:48:33;8.50;;;4.68;;
7477;SDS011;3780;42.424;25.636;2023-07-30T06:50:58;11.52;;;6.18;;
7477;SDS011;3780;42.424;25.636;2023-07-30T06:53:23;9.10;;;4.50;;
7477;SDS011;3780;42.424;25.636;2023-07-30T06:55:49;11.95;;;5.45;;
7477;SDS011;3780;42.424;25.636;2023-07-30T06:58:14;9.75;;;5.65;;
7477;SDS011;3780;42.424;25.636;2023-07-30T07:00:39;15.50;;;8.10;;
7477;SDS011;3780;42.424;25.636;2023-07-30T07:03:05;8.57;;;5.95;;
7477;SDS011;3780;42.424;25.636;2023-07-30T07:05:30;8.05;;;3.53;;
7477;SDS011;3780;42.424;25.636;2023-07-30T07:07:55;8.02;;;4.30;;
7477;SDS011;3780;42.424;25.636;2023-07-30T07:10:21;8.80;;;4.20;;
7477;SDS011;3780;42.424;25.636;2023-07-30T07:12:46;9.55;;;5.63;;
7477;SDS011;3780;42.424;25.636;2023-07-30T07:15:12;6.03;;;3.83;;
7477;SDS011;3780;42.424;25.636;2023-07-30T07:17:37;11.05;;;5.07;;
7477;SDS011;3780;42.424;25.636;2023-07-30T07:20:03;9.40;;;4.10;;
7477;SDS011;3780;42.424;25.636;2023-07-30T07:22:32;11.43;;;5.50;;
7477;SDS011;3780;42.424;25.636;2023-07-30T07:24:57;4.40;;;2.70;;
7477;SDS011;3780;42.424;25.636;2023-07-30T07:27:22;3.60;;;2.78;;
7477;SDS011;3780;42.424;25.636;2023-07-30T07:29:51;8.23;;;5.85;;
7477;SDS011;3780;42.424;25.636;2023-07-30T07:32:16;10.10;;;4.22;;
7477;SDS011;3780;42.424;25.636;2023-07-30T07:34:47;9.27;;;4.00;;
7477;SDS011;3780;42.424;25.636;2023-07-30T07:37:13;10.73;;;5.13;;
7477;SDS011;3780;42.424;25.636;2023-07-30T07:39:40;7.13;;;3.38;;
7477;SDS011;3780;42.424;25.636;2023-07-30T07:42:05;6.30;;;3.00;;
7477;SDS011;3780;42.424;25.636;2023-07-30T07:44:31;6.55;;;3.13;;
7477;SDS011;3780;42.424;25.636;2023-07-30T07:46:56;5.03;;;3.50;;
7477;SDS011;3780;42.424;25.636;2023-07-30T07:49:22;15.38;;;9.18;;
7477;SDS011;3780;42.424;25.636;2023-07-30T07:51:47;10.02;;;7.20;;
7477;SDS011;3780;42.424;25.636;2023-07-30T07:54:12;5.15;;;3.47;;
7477;SDS011;3780;42.424;25.636;2023-07-30T07:56:37;7.28;;;3.80;;
7477;SDS011;3780;42.424;25.636;2023-07-30T07:59:03;6.55;;;4.18;;
7477;SDS011;3780;42.424;25.636;2023-07-30T08:01:28;6.60;;;3.60;;
7477;SDS011;3780;42.424;25.636;2023-07-30T08:03:54;6.57;;;3.00;;
7477;SDS011;3780;42.424;25.636;2023-07-30T08:06:20;6.43;;;2.90;;
7477;SDS011;3780;42.424;25.636;2023-07-30T08:08:45;7.50;;;3.25;;
7477;SDS011;3780;42.424;25.636;2023-07-30T08:11:10;5.25;;;3.20;;
7477;SDS011;3780;42.424;25.636;2023-07-30T08:13:36;5.07;;;2.80;;
7477;SDS011;3780;42.424;25.636;2023-07-30T08:16:01;5.13;;;2.40;;
7477;SDS011;3780;42.424;25.636;2023-07-30T08:18:27;5.68;;;2.38;;
7477;SDS011;3780;42.424;25.636;2023-07-30T08:20:52;5.40;;;2.17;;
7477;SDS011;3780;42.424;25.636;2023-07-30T08:23:17;4.20;;;2.08;;
7477;SDS011;3780;42.424;25.636;2023-07-30T08:25:43;4.75;;;1.73;;
7477;SDS011;3780;42.424;25.636;2023-07-30T08:28:08;6.78;;;2.88;;
7477;SDS011;3780;42.424;25.636;2023-07-30T08:30:34;4.10;;;2.53;;
7477;SDS011;3780;42.424;25.636;2023-07-30T08:32:59;5.30;;;2.33;;
7477;SDS011;3780;42.424;25.636;2023-07-30T08:35:25;6.13;;;1.98;;
7477;SDS011;3780;42.424;25.636;2023-07-30T08:37:52;2.28;;;1.60;;
7477;SDS011;3780;42.424;25.636;2023-07-30T08:40:17;6.05;;;2.30;;
7477;SDS011;3780;42.424;25.636;2023-07-30T08:42:42;6.03;;;1.80;;
7477;SDS011;3780;42.424;25.636;2023-07-30T08:45:08;6.97;;;1.88;;
7477;SDS011;3780;42.424;25.636;2023-07-30T08:47:34;4.28;;;1.60;;
7477;SDS011;3780;42.424;25.636;2023-07-30T08:50:00;3.20;;;1.55;;
7477;SDS011;3780;42.424;25.636;2023-07-30T08:52:25;7.63;;;3.33;;
7477;SDS011;3780;42.424;25.636;2023-07-30T08:54:51;4.15;;;2.20;;
7477;SDS011;3780;42.424;25.636;2023-07-30T08:57:17;4.88;;;1.88;;
7477;SDS011;3780;42.424;25.636;2023-07-30T08:59:46;3.75;;;2.05;;
7477;SDS011;3780;42.424;25.636;2023-07-30T09:02:13;5.05;;;1.95;;
7477;SDS011;3780;42.424;25.636;2023-07-30T09:04:41;2.55;;;1.70;;
7477;SDS011;3780;42.424;25.636;2023-07-30T09:07:08;2.22;;;1.70;;
7477;SDS011;3780;42.424;25.636;2023-07-30T09:09:33;2.30;;;1.45;;
7477;SDS011;3780;42.424;25.636;2023-07-30T09:11:59;5.35;;;1.73;;
7477;SDS011;3780;42.424;25.636;2023-07-30T09:14:25;5.20;;;2.00;;
7477;SDS011;3780;42.424;25.636;2023-07-30T09:16:57;2.70;;;1.73;;
7477;SDS011;3780;42.424;25.636;2023-07-30T09:19:23;4.75;;;2.08;;
7477;SDS011;3780;42.424;25.636;2023-07-30T09:21:48;4.25;;;2.58;;
7477;SDS011;3780;42.424;25.636;2023-07-30T09:24:19;5.38;;;3.05;;
7477;SDS011;3780;42.424;25.636;2023-07-30T09:26:46;4.38;;;2.63;;
7477;SDS011;3780;42.424;25.636;2023-07-30T09:29:11;4.57;;;3.20;;
7477;SDS011;3780;42.424;25.636;2023-07-30T09:31:46;6.55;;;2.42;;
7477;SDS011;3780;42.424;25.636;2023-07-30T09:34:16;6.43;;;3.08;;
7477;SDS011;3780;42.424;25.636;2023-07-30T09:36:43;3.88;;;3.13;;
7477;SDS011;3780;42.424;25.636;2023-07-30T09:39:15;7.07;;;3.72;;
7477;SDS011;3780;42.424;25.636;2023-07-30T09:41:41;3.35;;;1.92;;
7477;SDS011;3780;42.424;25.636;2023-07-30T09:44:07;2.13;;;1.60;;
7477;SDS011;3780;42.424;25.636;2023-07-30T09:46:34;9.82;;;1.83;;
7477;SDS011;3780;42.424;25.636;2023-07-30T09:49:06;2.95;;;1.70;;
7477;SDS011;3780;42.424;25.636;2023-07-30T09:51:32;3.70;;;2.00;;
7477;SDS011;3780;42.424;25.636;2023-07-30T09:53:59;3.42;;;2.20;;
7477;SDS011;3780;42.424;25.636;2023-07-30T09:56:24;3.85;;;2.60;;
7477;SDS011;3780;42.424;25.636;2023-07-30T09:58:50;2.22;;;1.88;;
7477;SDS011;3780;42.424;25.636;2023-07-30T10:01:15;3.50;;;1.73;;
7477;SDS011;3780;42.424;25.636;2023-07-30T10:03:40;2.65;;;1.50;;
7477;SDS011;3780;42.424;25.636;2023-07-30T10:06:06;5.63;;;2.00;;
7477;SDS011;3780;42.424;25.636;2023-07-30T10:08:34;4.00;;;3.22;;
7477;SDS011;3780;42.424;25.636;2023-07-30T10:11:00;4.50;;;1.98;;
7477;SDS011;3780;42.424;25.636;2023-07-30T10:13:28;4.15;;;1.88;;
7477;SDS011;3780;42.424;25.636;2023-07-30T10:15:54;6.35;;;2.00;;
7477;SDS011;3780;42.424;25.636;2023-07-30T10:18:20;2.10;;;1.52;;
7477;SDS011;3780;42.424;25.636;2023-07-30T10:20:53;4.13;;;1.67;;
7477;SDS011;3780;42.424;25.636;2023-07-30T10:23:23;10.38;;;3.67;;
7477;SDS011;3780;42.424;25.636;2023-07-30T10:25:52;3.42;;;1.80;;
7477;SDS011;3780;42.424;25.636;2023-07-30T10:30:58;2.55;;;1.77;;
7477;SDS011;3780;42.424;25.636;2023-07-30T10:33:23;2.65;;;1.60;;
7477;SDS011;3780;42.424;25.636;2023-07-30T10:35:51;2.33;;;1.50;;
7477;SDS011;3780;42.424;25.636;2023-07-30T10:38:22;3.58;;;2.45;;
7477;SDS011;3780;42.424;25.636;2023-07-30T10:40:59;3.00;;;2.38;;
7477;SDS011;3780;42.424;25.636;2023-07-30T10:43:27;2.70;;;2.08;;
7477;SDS011;3780;42.424;25.636;2023-07-30T10:45:52;7.88;;;2.40;;
7477;SDS011;3780;42.424;25.636;2023-07-30T10:48:17;2.80;;;1.97;;
7477;SDS011;3780;42.424;25.636;2023-07-30T10:50:43;5.03;;;1.52;;
7477;SDS011;3780;42.424;25.636;2023-07-30T10:53:13;5.93;;;1.85;;
7477;SDS011;3780;42.424;25.636;2023-07-30T10:55:38;3.20;;;1.73;;
7477;SDS011;3780;42.424;25.636;2023-07-30T10:58:04;2.53;;;2.10;;
7477;SDS011;3780;42.424;25.636;2023-07-30T11:00:29;3.72;;;1.92;;
7477;SDS011;3780;42.424;25.636;2023-07-30T11:02:55;3.63;;;1.85;;
7477;SDS011;3780;42.424;25.636;2023-07-30T11:05:20;2.53;;;1.63;;
7477;SDS011;3780;42.424;25.636;2023-07-30T11:07:51;3.13;;;1.70;;
7477;SDS011;3780;42.424;25.636;2023-07-30T11:10:17;2.70;;;1.77;;
7477;SDS011;3780;42.424;25.636;2023-07-30T11:12:42;4.15;;;1.73;;
7477;SDS011;3780;42.424;25.636;2023-07-30T11:15:08;2.97;;;2.38;;
7477;SDS011;3780;42.424;25.636;2023-07-30T11:17:34;2.83;;;1.73;;
7477;SDS011;3780;42.424;25.636;2023-07-30T11:20:00;4.28;;;2.20;;
7477;SDS011;3780;42.424;25.636;2023-07-30T11:22:29;9.40;;;7.18;;
7477;SDS011;3780;42.424;25.636;2023-07-30T11:24:55;6.28;;;3.90;;
7477;SDS011;3780;42.424;25.636;2023-07-30T11:27:20;4.03;;;2.33;;
7477;SDS011;3780;42.424;25.636;2023-07-30T11:29:55;2.30;;;1.60;;
7477;SDS011;3780;42.424;25.636;2023-07-30T11:32:21;3.15;;;1.60;;
7477;SDS011;3780;42.424;25.636;2023-07-30T11:34:48;4.53;;;1.95;;
7477;SDS011;3780;42.424;25.636;2023-07-30T11:37:14;5.13;;;3.97;;
7477;SDS011;3780;42.424;25.636;2023-07-30T11:39:39;4.60;;;2.15;;
7477;SDS011;3780;42.424;25.636;2023-07-30T11:42:05;8.30;;;3.42;;
7477;SDS011;3780;42.424;25.636;2023-07-30T11:44:37;2.45;;;2.10;;
7477;SDS011;3780;42.424;25.636;2023-07-30T11:47:03;2.67;;;2.03;;
7477;SDS011;3780;42.424;25.636;2023-07-30T11:49:29;2.05;;;1.70;;
7477;SDS011;3780;42.424;25.636;2023-07-30T11:52:04;3.00;;;1.98;;
7477;SDS011;3780;42.424;25.636;2023-07-30T11:54:29;2.88;;;1.88;;
7477;SDS011;3780;42.424;25.636;2023-07-30T11:56:56;2.38;;;2.08;;
7477;SDS011;3780;42.424;25.636;2023-07-30T11:59:21;2.65;;;2.05;;
7477;SDS011;3780;42.424;25.636;2023-07-30T12:01:47;2.83;;;1.90;;
7477;SDS011;3780;42.424;25.636;2023-07-30T12:04:13;4.13;;;2.70;;
7477;SDS011;3780;42.424;25.636;2023-07-30T12:06:42;6.57;;;1.98;;
7477;SDS011;3780;42.424;25.636;2023-07-30T12:09:11;4.15;;;1.80;;
7477;SDS011;3780;42.424;25.636;2023-07-30T12:11:44;8.65;;;3.13;;
7477;SDS011;3780;42.424;25.636;2023-07-30T12:14:09;2.97;;;2.00;;
7477;SDS011;3780;42.424;25.636;2023-07-30T12:16:34;2.73;;;2.00;;
7477;SDS011;3780;42.424;25.636;2023-07-30T12:18:59;3.43;;;2.13;;
7477;SDS011;3780;42.424;25.636;2023-07-30T12:21:25;2.10;;;1.90;;
7477;SDS011;3780;42.424;25.636;2023-07-30T12:23:50;3.30;;;2.20;;
7477;SDS011;3780;42.424;25.636;2023-07-30T12:26:15;4.50;;;1.75;;
7477;SDS011;3780;42.424;25.636;2023-07-30T12:28:41;3.33;;;1.90;;
7477;SDS011;3780;42.424;25.636;2023-07-30T12:31:06;2.25;;;1.95;;
7477;SDS011;3780;42.424;25.636;2023-07-30T12:33:31;4.40;;;3.47;;
7477;SDS011;3780;42.424;25.636;2023-07-30T12:35:57;3.85;;;2.05;;
7477;SDS011;3780;42.424;25.636;2023-07-30T12:38:22;7.00;;;4.10;;
7477;SDS011;3780;42.424;25.636;2023-07-30T12:40:47;5.72;;;3.30;;
7477;SDS011;3780;42.424;25.636;2023-07-30T12:43:13;6.93;;;2.80;;
7477;SDS011;3780;42.424;25.636;2023-07-30T12:45:38;3.38;;;2.28;;
7477;SDS011;3780;42.424;25.636;2023-07-30T12:48:04;3.75;;;1.73;;
7477;SDS011;3780;42.424;25.636;2023-07-30T12:50:29;2.75;;;2.20;;
7477;SDS011;3780;42.424;25.636;2023-07-30T12:52:55;3.70;;;2.47;;
7477;SDS011;3780;42.424;25.636;2023-07-30T12:55:20;2.47;;;1.73;;
7477;SDS011;3780;42.424;25.636;2023-07-30T12:57:45;4.22;;;2.00;;
7477;SDS011;3780;42.424;25.636;2023-07-30T13:00:11;4.13;;;1.65;;
7477;SDS011;3780;42.424;25.636;2023-07-30T13:02:36;3.72;;;2.55;;
7477;SDS011;3780;42.424;25.636;2023-07-30T13:05:02;5.25;;;2.00;;
7477;SDS011;3780;42.424;25.636;2023-07-30T13:07:29;3.30;;;1.83;;
7477;SDS011;3780;42.424;25.636;2023-07-30T13:10:04;4.35;;;2.03;;
7477;SDS011;3780;42.424;25.636;2023-07-30T13:12:30;4.20;;;2.10;;
7477;SDS011;3780;42.424;25.636;2023-07-30T13:14:55;3.97;;;1.77;;
7477;SDS011;3780;42.424;25.636;2023-07-30T13:17:20;3.93;;;2.03;;
7477;SDS011;3780;42.424;25.636;2023-07-30T13:19:45;3.20;;;1.70;;
7477;SDS011;3780;42.424;25.636;2023-07-30T13:22:11;2.20;;;1.95;;
7477;SDS011;3780;42.424;25.636;2023-07-30T13:24:36;5.32;;;3.80;;
7477;SDS011;3780;42.424;25.636;2023-07-30T13:27:01;2.72;;;2.03;;
7477;SDS011;3780;42.424;25.636;2023-07-30T13:29:27;4.20;;;1.98;;
7477;SDS011;3780;42.424;25.636;2023-07-30T13:31:52;4.40;;;1.98;;
7477;SDS011;3780;42.424;25.636;2023-07-30T13:34:20;3.97;;;2.08;;
7477;SDS011;3780;42.424;25.636;2023-07-30T13:36:46;4.82;;;3.80;;
7477;SDS011;3780;42.424;25.636;2023-07-30T13:39:11;3.03;;;2.10;;
7477;SDS011;3780;42.424;25.636;2023-07-30T13:41:36;4.25;;;1.90;;
7477;SDS011;3780;42.424;25.636;2023-07-30T13:44:02;4.00;;;1.58;;
7477;SDS011;3780;42.424;25.636;2023-07-30T13:46:27;3.40;;;2.03;;
7477;SDS011;3780;42.424;25.636;2023-07-30T13:48:52;2.28;;;1.90;;
7477;SDS011;3780;42.424;25.636;2023-07-30T13:51:18;2.00;;;1.80;;
7477;SDS011;3780;42.424;25.636;2023-07-30T13:53:43;4.63;;;2.03;;
7477;SDS011;3780;42.424;25.636;2023-07-30T13:56:08;5.13;;;2.17;;
7477;SDS011;3780;42.424;25.636;2023-07-30T13:58:34;5.10;;;2.17;;
7477;SDS011;3780;42.424;25.636;2023-07-30T14:00:59;3.23;;;2.63;;
7477;SDS011;3780;42.424;25.636;2023-07-30T14:03:24;7.90;;;2.20;;
7477;SDS011;3780;42.424;25.636;2023-07-30T14:05:49;5.20;;;2.20;;
7477;SDS011;3780;42.424;25.636;2023-07-30T14:08:15;3.22;;;2.10;;
7477;SDS011;3780;42.424;25.636;2023-07-30T14:10:40;2.80;;;2.50;;
7477;SDS011;3780;42.424;25.636;2023-07-30T14:13:05;4.25;;;2.30;;
7477;SDS011;3780;42.424;25.636;2023-07-30T14:15:31;6.22;;;2.60;;
7477;SDS011;3780;42.424;25.636;2023-07-30T14:17:56;3.63;;;2.05;;
7477;SDS011;3780;42.424;25.636;2023-07-30T14:20:21;5.40;;;2.20;;
7477;SDS011;3780;42.424;25.636;2023-07-30T14:22:47;3.10;;;2.13;;
7477;SDS011;3780;42.424;25.636;2023-07-30T14:25:13;7.68;;;2.75;;
7477;SDS011;3780;42.424;25.636;2023-07-30T14:27:39;8.20;;;2.92;;
7477;SDS011;3780;42.424;25.636;2023-07-30T14:30:04;7.22;;;3.28;;
7477;SDS011;3780;42.424;25.636;2023-07-30T14:32:29;5.50;;;3.47;;
7477;SDS011;3780;42.424;25.636;2023-07-30T14:34:55;6.97;;;3.03;;
7477;SDS011;3780;42.424;25.636;2023-07-30T14:37:20;5.95;;;3.50;;
7477;SDS011;3780;42.424;25.636;2023-07-30T14:39:45;3.22;;;2.30;;
7477;SDS011;3780;42.424;25.636;2023-07-30T14:42:11;3.75;;;2.22;;
7477;SDS011;3780;42.424;25.636;2023-07-30T14:44:36;3.40;;;2.90;;
7477;SDS011;3780;42.424;25.636;2023-07-30T14:47:01;3.22;;;2.55;;
7477;SDS011;3780;42.424;25.636;2023-07-30T14:49:28;4.63;;;2.25;;
7477;SDS011;3780;42.424;25.636;2023-07-30T14:51:53;4.30;;;2.40;;
7477;SDS011;3780;42.424;25.636;2023-07-30T14:54:19;3.40;;;2.63;;